sensor_id;sensor_type;location;lat;lon;timestamp;P1;durP1;ratioP1;P2;durP2;ratioP2
1366;SDS011;16877;48.810;9.282;2023-07-31T00:01:43;3.10;;;1.70;;
1366;SDS011;16877;48.810;9.282;2023-07-31T00:04:13;4.27;;;2.00;;
1366;SDS011;16877;48.810;9.282;2023-07-31T00:06:40;5.10;;;1.50;;
1366;SDS011;16877;48.810;9.282;2023-07-31T00:09:10;3.43;;;1.60;;
1366;SDS011;16877;48.810;9.282;2023-07-31T00:11:37;3.60;;;1.70;;
1366;SDS011;16877;48.810;9.282;2023-07-31T00:14:22;3.47;;;1.50;;
1366;SDS011;16877;48.810;9.282;2023-07-31T00:16:49;4.67;;;1.73;;
1366;SDS011;16877;48.810;9.282;2023-07-31T00:19:17;4.23;;;1.70;;
1366;SDS011;16877;48.810;9.282;2023-07-31T00:21:45;4.43;;;2.10;;
1366;SDS011;16877;48.810;9.282;2023-07-31T00:24:12;3.90;;;1.50;;
1366;SDS011;16877;48.810;9.282;2023-07-31T00:26:43;3.67;;;2.00;;
1366;SDS011;16877;48.810;9.282;2023-07-31T00:29:14;5.20;;;2.13;;
1366;SDS011;16877;48.810;9.282;2023-07-31T00:31:45;3.53;;;2.03;;
1366;SDS011;16877;48.810;9.282;2023-07-31T00:34:12;4.20;;;1.87;;
1366;SDS011;16877;48.810;9.282;2023-07-31T00:36:40;4.23;;;1.90;;
1366;SDS011;16877;48.810;9.282;2023-07-31T00:39:08;4.20;;;1.87;;
1366;SDS011;16877;48.810;9.282;2023-07-31T00:41:50;3.37;;;1.80;;
1366;SDS011;16877;48.810;9.282;2023-07-31T00:44:17;6.17;;;2.07;;
1366;SDS011;16877;48.810;9.282;2023-07-31T00:46:51;3.07;;;1.70;;
1366;SDS011;16877;48.810;9.282;2023-07-31T00:49:19;4.50;;;2.70;;
1366;SDS011;16877;48.810;9.282;2023-07-31T00:51:47;3.67;;;1.73;;
1366;SDS011;16877;48.810;9.282;2023-07-31T00:54:14;3.43;;;1.83;;
1366;SDS011;16877;48.810;9.282;2023-07-31T00:56:42;4.20;;;1.90;;
1366;SDS011;16877;48.810;9.282;2023-07-31T00:59:13;2.90;;;1.60;;
1366;SDS011;16877;48.810;9.282;2023-07-31T01:01:41;3.23;;;1.97;;
1366;SDS011;16877;48.810;9.282;2023-07-31T01:04:13;3.50;;;2.10;;
1366;SDS011;16877;48.810;9.282;2023-07-31T01:06:43;4.13;;;1.93;;
1366;SDS011;16877;48.810;9.282;2023-07-31T01:09:16;3.43;;;1.70;;
1366;SDS011;16877;48.810;9.282;2023-07-31T01:11:52;3.73;;;1.90;;
1366;SDS011;16877;48.810;9.282;2023-07-31T01:14:22;2.90;;;1.40;;
1366;SDS011;16877;48.810;9.282;2023-07-31T01:16:50;3.00;;;1.40;;
1366;SDS011;16877;48.810;9.282;2023-07-31T01:19:20;3.93;;;2.10;;
1366;SDS011;16877;48.810;9.282;2023-07-31T01:21:56;2.83;;;1.90;;
1366;SDS011;16877;48.810;9.282;2023-07-31T01:24:42;5.63;;;2.20;;
1366;SDS011;16877;48.810;9.282;2023-07-31T01:27:26;4.13;;;2.07;;
1366;SDS011;16877;48.810;9.282;2023-07-31T01:29:59;4.03;;;1.93;;
1366;SDS011;16877;48.810;9.282;2023-07-31T01:32:35;4.50;;;2.00;;
1366;SDS011;16877;48.810;9.282;2023-07-31T01:35:06;3.27;;;1.67;;
1366;SDS011;16877;48.810;9.282;2023-07-31T01:37:34;6.07;;;1.73;;
1366;SDS011;16877;48.810;9.282;2023-07-31T01:40:03;4.03;;;2.00;;
1366;SDS011;16877;48.810;9.282;2023-07-31T01:42:34;4.47;;;1.83;;
1366;SDS011;16877;48.810;9.282;2023-07-31T01:45:01;3.70;;;1.80;;
1366;SDS011;16877;48.810;9.282;2023-07-31T01:47:29;5.10;;;1.63;;
1366;SDS011;16877;48.810;9.282;2023-07-31T01:49:57;3.43;;;1.93;;
1366;SDS011;16877;48.810;9.282;2023-07-31T01:52:29;3.00;;;1.93;;
1366;SDS011;16877;48.810;9.282;2023-07-31T01:54:56;3.10;;;1.57;;
1366;SDS011;16877;48.810;9.282;2023-07-31T01:57:24;3.67;;;1.80;;
1366;SDS011;16877;48.810;9.282;2023-07-31T01:59:53;2.73;;;1.43;;
1366;SDS011;16877;48.810;9.282;2023-07-31T02:02:31;2.70;;;1.37;;
1366;SDS011;16877;48.810;9.282;2023-07-31T02:05:03;4.23;;;2.30;;
1366;SDS011;16877;48.810;9.282;2023-07-31T02:07:30;4.20;;;1.87;;
1366;SDS011;16877;48.810;9.282;2023-07-31T02:10:00;2.60;;;1.50;;
1366;SDS011;16877;48.810;9.282;2023-07-31T02:12:28;2.97;;;1.50;;
1366;SDS011;16877;48.810;9.282;2023-07-31T02:14:58;4.93;;;2.10;;
1366;SDS011;16877;48.810;9.282;2023-07-31T02:17:36;4.80;;;1.90;;
1366;SDS011;16877;48.810;9.282;2023-07-31T02:20:18;3.40;;;1.70;;
1366;SDS011;16877;48.810;9.282;2023-07-31T02:22:50;4.20;;;1.87;;
1366;SDS011;16877;48.810;9.282;2023-07-31T02:25:22;4.97;;;1.70;;
1366;SDS011;16877;48.810;9.282;2023-07-31T02:27:50;5.00;;;2.13;;
1366;SDS011;16877;48.810;9.282;2023-07-31T02:30:19;3.10;;;1.57;;
1366;SDS011;16877;48.810;9.282;2023-07-31T02:32:46;9.10;;;2.00;;
1366;SDS011;16877;48.810;9.282;2023-07-31T02:35:14;3.87;;;1.90;;
1366;SDS011;16877;48.810;9.282;2023-07-31T02:37:41;2.60;;;1.47;;
1366;SDS011;16877;48.810;9.282;2023-07-31T02:40:09;3.00;;;1.70;;
1366;SDS011;16877;48.810;9.282;2023-07-31T02:42:37;3.70;;;2.13;;
1366;SDS011;16877;48.810;9.282;2023-07-31T02:45:05;3.63;;;2.00;;
1366;SDS011;16877;48.810;9.282;2023-07-31T02:47:35;3.33;;;1.40;;
1366;SDS011;16877;48.810;9.282;2023-07-31T02:50:05;3.20;;;1.70;;
1366;SDS011;16877;48.810;9.282;2023-07-31T02:52:33;4.63;;;1.77;;
1366;SDS011;16877;48.810;9.282;2023-07-31T02:55:01;3.90;;;1.60;;
1366;SDS011;16877;48.810;9.282;2023-07-31T02:57:28;4.93;;;1.80;;
1366;SDS011;16877;48.810;9.282;2023-07-31T03:00:10;4.27;;;1.60;;
1366;SDS011;16877;48.810;9.282;2023-07-31T03:02:39;5.00;;;1.80;;
1366;SDS011;16877;48.810;9.282;2023-07-31T03:05:07;4.30;;;2.27;;
1366;SDS011;16877;48.810;9.282;2023-07-31T03:07:35;3.60;;;1.80;;
1366;SDS011;16877;48.810;9.282;2023-07-31T03:10:02;3.83;;;1.80;;
1366;SDS011;16877;48.810;9.282;2023-07-31T03:12:30;3.80;;;1.97;;
1366;SDS011;16877;48.810;9.282;2023-07-31T03:14:57;2.97;;;1.20;;
1366;SDS011;16877;48.810;9.282;2023-07-31T03:17:25;7.70;;;1.80;;
1366;SDS011;16877;48.810;9.282;2023-07-31T03:20:04;3.57;;;1.60;;
1366;SDS011;16877;48.810;9.282;2023-07-31T03:22:33;4.80;;;2.00;;
1366;SDS011;16877;48.810;9.282;2023-07-31T03:25:01;2.97;;;1.73;;
1366;SDS011;16877;48.810;9.282;2023-07-31T03:27:28;5.00;;;1.80;;
1366;SDS011;16877;48.810;9.282;2023-07-31T03:29:56;3.70;;;1.50;;
1366;SDS011;16877;48.810;9.282;2023-07-31T03:32:24;5.43;;;2.40;;
1366;SDS011;16877;48.810;9.282;2023-07-31T03:34:51;5.23;;;1.90;;
1366;SDS011;16877;48.810;9.282;2023-07-31T03:37:20;3.60;;;1.83;;
1366;SDS011;16877;48.810;9.282;2023-07-31T03:39:48;6.47;;;2.43;;
1366;SDS011;16877;48.810;9.282;2023-07-31T03:42:30;3.80;;;1.97;;
1366;SDS011;16877;48.810;9.282;2023-07-31T03:44:58;3.97;;;1.83;;
1366;SDS011;16877;48.810;9.282;2023-07-31T03:47:25;2.63;;;1.73;;
1366;SDS011;16877;48.810;9.282;2023-07-31T03:50:12;4.23;;;2.27;;
1366;SDS011;16877;48.810;9.282;2023-07-31T03:53:17;3.17;;;1.57;;
1366;SDS011;16877;48.810;9.282;2023-07-31T03:56:01;2.83;;;1.70;;
1366;SDS011;16877;48.810;9.282;2023-07-31T03:58:29;4.17;;;1.70;;
1366;SDS011;16877;48.810;9.282;2023-07-31T04:01:04;3.60;;;1.77;;
1366;SDS011;16877;48.810;9.282;2023-07-31T04:03:47;7.93;;;2.20;;
1366;SDS011;16877;48.810;9.282;2023-07-31T04:06:16;5.27;;;2.40;;
1366;SDS011;16877;48.810;9.282;2023-07-31T04:08:47;3.40;;;2.07;;
1366;SDS011;16877;48.810;9.282;2023-07-31T04:11:17;4.27;;;1.70;;
1366;SDS011;16877;48.810;9.282;2023-07-31T04:13:51;5.13;;;2.23;;
1366;SDS011;16877;48.810;9.282;2023-07-31T04:16:19;3.90;;;2.20;;
1366;SDS011;16877;48.810;9.282;2023-07-31T04:18:47;3.70;;;1.67;;
1366;SDS011;16877;48.810;9.282;2023-07-31T04:21:18;5.10;;;1.50;;
1366;SDS011;16877;48.810;9.282;2023-07-31T04:23:47;5.00;;;1.80;;
1366;SDS011;16877;48.810;9.282;2023-07-31T04:26:15;4.33;;;1.90;;
1366;SDS011;16877;48.810;9.282;2023-07-31T04:28:42;3.07;;;1.90;;
1366;SDS011;16877;48.810;9.282;2023-07-31T04:31:28;4.47;;;1.77;;
1366;SDS011;16877;48.810;9.282;2023-07-31T04:34:01;4.07;;;1.80;;
1366;SDS011;16877;48.810;9.282;2023-07-31T04:36:29;3.50;;;2.17;;
1366;SDS011;16877;48.810;9.282;2023-07-31T04:39:00;3.87;;;1.90;;
1366;SDS011;16877;48.810;9.282;2023-07-31T04:41:30;3.00;;;1.90;;
1366;SDS011;16877;48.810;9.282;2023-07-31T04:44:11;4.30;;;2.10;;
1366;SDS011;16877;48.810;9.282;2023-07-31T04:46:47;4.43;;;1.90;;
1366;SDS011;16877;48.810;9.282;2023-07-31T04:49:15;3.90;;;2.17;;
1366;SDS011;16877;48.810;9.282;2023-07-31T04:51:47;3.63;;;2.10;;
1366;SDS011;16877;48.810;9.282;2023-07-31T04:54:31;3.30;;;1.90;;
1366;SDS011;16877;48.810;9.282;2023-07-31T04:56:58;3.23;;;1.73;;
1366;SDS011;16877;48.810;9.282;2023-07-31T04:59:32;3.80;;;2.10;;
1366;SDS011;16877;48.810;9.282;2023-07-31T05:02:14;3.17;;;1.60;;
1366;SDS011;16877;48.810;9.282;2023-07-31T05:04:44;4.30;;;2.10;;
1366;SDS011;16877;48.810;9.282;2023-07-31T05:07:12;3.63;;;1.90;;
1366;SDS011;16877;48.810;9.282;2023-07-31T05:09:42;2.83;;;1.97;;
1366;SDS011;16877;48.810;9.282;2023-07-31T05:12:12;6.10;;;2.07;;
1366;SDS011;16877;48.810;9.282;2023-07-31T05:14:39;3.43;;;1.90;;
1366;SDS011;16877;48.810;9.282;2023-07-31T05:17:08;6.30;;;1.63;;
1366;SDS011;16877;48.810;9.282;2023-07-31T05:19:41;4.27;;;1.80;;
1366;SDS011;16877;48.810;9.282;2023-07-31T05:22:23;4.57;;;2.27;;
1366;SDS011;16877;48.810;9.282;2023-07-31T05:24:58;3.60;;;1.83;;
1366;SDS011;16877;48.810;9.282;2023-07-31T05:27:36;4.83;;;2.50;;
1366;SDS011;16877;48.810;9.282;2023-07-31T05:30:23;3.60;;;1.97;;
1366;SDS011;16877;48.810;9.282;2023-07-31T05:32:54;3.80;;;1.57;;
1366;SDS011;16877;48.810;9.282;2023-07-31T05:35:22;3.87;;;2.10;;
1366;SDS011;16877;48.810;9.282;2023-07-31T05:37:49;3.03;;;1.93;;
1366;SDS011;16877;48.810;9.282;2023-07-31T05:43:06;3.93;;;2.30;;
1366;SDS011;16877;48.810;9.282;2023-07-31T05:45:34;6.00;;;2.93;;
1366;SDS011;16877;48.810;9.282;2023-07-31T05:48:02;2.70;;;1.67;;
1366;SDS011;16877;48.810;9.282;2023-07-31T05:50:30;3.80;;;1.90;;
1366;SDS011;16877;48.810;9.282;2023-07-31T05:53:13;6.30;;;2.10;;
1366;SDS011;16877;48.810;9.282;2023-07-31T05:55:48;8.40;;;2.17;;
1366;SDS011;16877;48.810;9.282;2023-07-31T05:58:16;5.73;;;2.17;;
1366;SDS011;16877;48.810;9.282;2023-07-31T06:00:46;5.30;;;2.23;;
1366;SDS011;16877;48.810;9.282;2023-07-31T06:03:15;4.70;;;1.97;;
1366;SDS011;16877;48.810;9.282;2023-07-31T06:05:43;5.73;;;2.17;;
1366;SDS011;16877;48.810;9.282;2023-07-31T06:08:12;3.90;;;1.87;;
1366;SDS011;16877;48.810;9.282;2023-07-31T06:10:39;3.57;;;1.83;;
1366;SDS011;16877;48.810;9.282;2023-07-31T06:13:08;4.30;;;2.10;;
1366;SDS011;16877;48.810;9.282;2023-07-31T06:15:36;4.47;;;2.10;;
1366;SDS011;16877;48.810;9.282;2023-07-31T06:18:04;4.23;;;2.00;;
1366;SDS011;16877;48.810;9.282;2023-07-31T06:20:32;4.93;;;2.00;;
1366;SDS011;16877;48.810;9.282;2023-07-31T06:23:00;5.50;;;2.40;;
1366;SDS011;16877;48.810;9.282;2023-07-31T06:25:27;3.80;;;2.07;;
1366;SDS011;16877;48.810;9.282;2023-07-31T06:27:55;3.23;;;1.70;;
1366;SDS011;16877;48.810;9.282;2023-07-31T06:30:25;3.73;;;2.37;;
1366;SDS011;16877;48.810;9.282;2023-07-31T06:32:52;3.03;;;1.80;;
1366;SDS011;16877;48.810;9.282;2023-07-31T06:35:19;4.10;;;2.27;;
1366;SDS011;16877;48.810;9.282;2023-07-31T06:37:47;3.77;;;2.03;;
1366;SDS011;16877;48.810;9.282;2023-07-31T06:40:14;5.23;;;2.40;;
1366;SDS011;16877;48.810;9.282;2023-07-31T06:42:41;3.17;;;1.73;;
1366;SDS011;16877;48.810;9.282;2023-07-31T06:45:09;8.37;;;2.43;;
1366;SDS011;16877;48.810;9.282;2023-07-31T06:47:38;6.47;;;1.90;;
1366;SDS011;16877;48.810;9.282;2023-07-31T06:50:05;4.80;;;2.10;;
1366;SDS011;16877;48.810;9.282;2023-07-31T06:52:33;4.37;;;2.30;;
1366;SDS011;16877;48.810;9.282;2023-07-31T06:55:01;4.40;;;1.90;;
1366;SDS011;16877;48.810;9.282;2023-07-31T06:57:31;3.47;;;2.13;;
1366;SDS011;16877;48.810;9.282;2023-07-31T06:59:58;3.60;;;2.10;;
1366;SDS011;16877;48.810;9.282;2023-07-31T07:02:26;5.87;;;2.43;;
1366;SDS011;16877;48.810;9.282;2023-07-31T07:04:55;3.10;;;1.83;;
1366;SDS011;16877;48.810;9.282;2023-07-31T07:07:22;4.17;;;2.40;;
1366;SDS011;16877;48.810;9.282;2023-07-31T07:09:52;2.70;;;1.50;;
1366;SDS011;16877;48.810;9.282;2023-07-31T07:12:19;6.83;;;2.67;;
1366;SDS011;16877;48.810;9.282;2023-07-31T07:14:45;6.50;;;2.07;;
1366;SDS011;16877;48.810;9.282;2023-07-31T07:17:13;3.03;;;1.60;;
1366;SDS011;16877;48.810;9.282;2023-07-31T07:19:42;4.10;;;2.00;;
1366;SDS011;16877;48.810;9.282;2023-07-31T07:22:14;4.27;;;2.00;;
1366;SDS011;16877;48.810;9.282;2023-07-31T07:24:41;3.60;;;2.30;;
1366;SDS011;16877;48.810;9.282;2023-07-31T07:27:08;5.90;;;2.30;;
1366;SDS011;16877;48.810;9.282;2023-07-31T07:29:37;3.40;;;2.00;;
1366;SDS011;16877;48.810;9.282;2023-07-31T07:32:20;3.90;;;2.00;;
1366;SDS011;16877;48.810;9.282;2023-07-31T07:35:03;3.87;;;2.20;;
1366;SDS011;16877;48.810;9.282;2023-07-31T07:37:32;6.47;;;2.50;;
1366;SDS011;16877;48.810;9.282;2023-07-31T07:39:59;2.80;;;1.93;;
1366;SDS011;16877;48.810;9.282;2023-07-31T07:42:27;5.10;;;2.50;;
1366;SDS011;16877;48.810;9.282;2023-07-31T07:44:55;7.33;;;2.23;;
1366;SDS011;16877;48.810;9.282;2023-07-31T07:47:22;3.97;;;2.40;;
1366;SDS011;16877;48.810;9.282;2023-07-31T07:49:50;4.27;;;2.27;;
1366;SDS011;16877;48.810;9.282;2023-07-31T07:52:18;5.20;;;2.90;;
1366;SDS011;16877;48.810;9.282;2023-07-31T07:54:47;6.60;;;2.70;;
1366;SDS011;16877;48.810;9.282;2023-07-31T07:57:15;4.87;;;2.37;;
1366;SDS011;16877;48.810;9.282;2023-07-31T07:59:42;6.20;;;1.90;;
1366;SDS011;16877;48.810;9.282;2023-07-31T08:02:10;4.47;;;2.53;;
1366;SDS011;16877;48.810;9.282;2023-07-31T08:04:37;4.37;;;2.10;;
1366;SDS011;16877;48.810;9.282;2023-07-31T08:07:20;5.43;;;2.53;;
1366;SDS011;16877;48.810;9.282;2023-07-31T08:10:04;4.43;;;2.30;;
1366;SDS011;16877;48.810;9.282;2023-07-31T08:12:32;4.20;;;2.17;;
1366;SDS011;16877;48.810;9.282;2023-07-31T08:15:01;5.90;;;2.60;;
1366;SDS011;16877;48.810;9.282;2023-07-31T08:17:29;5.73;;;3.03;;
1366;SDS011;16877;48.810;9.282;2023-07-31T08:19:57;4.43;;;2.80;;
1366;SDS011;16877;48.810;9.282;2023-07-31T08:22:25;4.07;;;2.27;;
1366;SDS011;16877;48.810;9.282;2023-07-31T08:25:09;5.70;;;2.60;;
1366;SDS011;16877;48.810;9.282;2023-07-31T08:27:52;4.87;;;2.20;;
1366;SDS011;16877;48.810;9.282;2023-07-31T08:30:29;9.30;;;3.00;;
1366;SDS011;16877;48.810;9.282;2023-07-31T08:33:15;5.10;;;2.97;;
1366;SDS011;16877;48.810;9.282;2023-07-31T08:35:57;5.30;;;2.47;;
1366;SDS011;16877;48.810;9.282;2023-07-31T08:38:40;4.60;;;1.90;;
1366;SDS011;16877;48.810;9.282;2023-07-31T08:41:24;4.23;;;2.43;;
1366;SDS011;16877;48.810;9.282;2023-07-31T08:43:52;3.53;;;2.73;;
1366;SDS011;16877;48.810;9.282;2023-07-31T08:46:22;4.67;;;2.50;;
1366;SDS011;16877;48.810;9.282;2023-07-31T08:49:02;4.00;;;2.50;;
1366;SDS011;16877;48.810;9.282;2023-07-31T08:51:31;3.37;;;2.20;;
1366;SDS011;16877;48.810;9.282;2023-07-31T08:54:00;5.77;;;2.90;;
1366;SDS011;16877;48.810;9.282;2023-07-31T08:56:31;4.10;;;2.37;;
1366;SDS011;16877;48.810;9.282;2023-07-31T08:58:59;4.30;;;2.53;;
1366;SDS011;16877;48.810;9.282;2023-07-31T09:01:29;6.30;;;3.00;;
1366;SDS011;16877;48.810;9.282;2023-07-31T09:03:58;5.67;;;2.73;;
1366;SDS011;16877;48.810;9.282;2023-07-31T09:06:27;4.80;;;2.57;;
1366;SDS011;16877;48.810;9.282;2023-07-31T09:08:57;6.20;;;2.57;;
1366;SDS011;16877;48.810;9.282;2023-07-31T09:11:24;4.30;;;2.60;;
1366;SDS011;16877;48.810;9.282;2023-07-31T09:13:56;4.00;;;2.73;;
1366;SDS011;16877;48.810;9.282;2023-07-31T09:16:27;5.00;;;2.40;;
1366;SDS011;16877;48.810;9.282;2023-07-31T09:18:57;5.43;;;2.63;;
1366;SDS011;16877;48.810;9.282;2023-07-31T09:21:27;3.63;;;2.50;;
1366;SDS011;16877;48.810;9.282;2023-07-31T09:23:54;4.83;;;2.57;;
1366;SDS011;16877;48.810;9.282;2023-07-31T09:26:30;4.20;;;2.33;;
1366;SDS011;16877;48.810;9.282;2023-07-31T09:29:01;7.07;;;3.20;;
1366;SDS011;16877;48.810;9.282;2023-07-31T09:31:38;3.33;;;2.10;;
1366;SDS011;16877;48.810;9.282;2023-07-31T09:34:06;4.60;;;2.73;;
1366;SDS011;16877;48.810;9.282;2023-07-31T09:36:39;4.80;;;2.73;;
1366;SDS011;16877;48.810;9.282;2023-07-31T09:39:09;4.33;;;2.43;;
1366;SDS011;16877;48.810;9.282;2023-07-31T09:41:41;9.50;;;2.67;;
1366;SDS011;16877;48.810;9.282;2023-07-31T09:44:11;3.80;;;2.40;;
1366;SDS011;16877;48.810;9.282;2023-07-31T09:46:39;5.50;;;2.67;;
1366;SDS011;16877;48.810;9.282;2023-07-31T09:49:08;6.43;;;3.03;;
1366;SDS011;16877;48.810;9.282;2023-07-31T09:51:50;4.33;;;3.00;;
1366;SDS011;16877;48.810;9.282;2023-07-31T09:54:18;5.20;;;2.43;;
1366;SDS011;16877;48.810;9.282;2023-07-31T09:56:46;6.17;;;2.77;;
1366;SDS011;16877;48.810;9.282;2023-07-31T09:59:15;4.93;;;2.27;;
1366;SDS011;16877;48.810;9.282;2023-07-31T10:01:45;5.50;;;3.20;;
1366;SDS011;16877;48.810;9.282;2023-07-31T10:04:23;3.70;;;2.43;;
1366;SDS011;16877;48.810;9.282;2023-07-31T10:06:54;5.67;;;3.00;;
1366;SDS011;16877;48.810;9.282;2023-07-31T10:09:26;5.27;;;2.63;;
1366;SDS011;16877;48.810;9.282;2023-07-31T10:12:07;4.63;;;2.40;;
1366;SDS011;16877;48.810;9.282;2023-07-31T10:14:50;5.50;;;2.80;;
1366;SDS011;16877;48.810;9.282;2023-07-31T10:17:20;4.80;;;2.10;;
1366;SDS011;16877;48.810;9.282;2023-07-31T10:19:50;4.63;;;2.50;;
1366;SDS011;16877;48.810;9.282;2023-07-31T10:22:18;4.17;;;2.10;;
1366;SDS011;16877;48.810;9.282;2023-07-31T10:24:47;3.93;;;1.93;;
1366;SDS011;16877;48.810;9.282;2023-07-31T10:27:30;5.93;;;2.57;;
1366;SDS011;16877;48.810;9.282;2023-07-31T10:29:59;3.70;;;2.80;;
1366;SDS011;16877;48.810;9.282;2023-07-31T10:32:26;3.17;;;1.73;;
1366;SDS011;16877;48.810;9.282;2023-07-31T10:34:55;5.67;;;3.20;;
1366;SDS011;16877;48.810;9.282;2023-07-31T10:37:23;4.50;;;2.33;;
1366;SDS011;16877;48.810;9.282;2023-07-31T10:39:55;4.83;;;2.70;;
1366;SDS011;16877;48.810;9.282;2023-07-31T10:42:29;6.03;;;2.67;;
1366;SDS011;16877;48.810;9.282;2023-07-31T10:45:01;4.17;;;2.53;;
1366;SDS011;16877;48.810;9.282;2023-07-31T10:47:30;5.87;;;2.80;;
1366;SDS011;16877;48.810;9.282;2023-07-31T10:50:13;6.13;;;2.70;;
1366;SDS011;16877;48.810;9.282;2023-07-31T10:52:48;5.63;;;2.60;;
1366;SDS011;16877;48.810;9.282;2023-07-31T10:55:27;5.13;;;2.40;;
1366;SDS011;16877;48.810;9.282;2023-07-31T10:57:57;4.17;;;2.30;;
1366;SDS011;16877;48.810;9.282;2023-07-31T11:00:33;4.67;;;2.40;;
1366;SDS011;16877;48.810;9.282;2023-07-31T11:03:13;4.90;;;2.60;;
1366;SDS011;16877;48.810;9.282;2023-07-31T11:05:43;3.30;;;2.10;;
1366;SDS011;16877;48.810;9.282;2023-07-31T11:08:11;3.30;;;2.40;;
1366;SDS011;16877;48.810;9.282;2023-07-31T11:10:40;5.20;;;2.57;;
1366;SDS011;16877;48.810;9.282;2023-07-31T11:13:09;3.97;;;2.77;;
1366;SDS011;16877;48.810;9.282;2023-07-31T11:15:38;4.07;;;2.20;;
1366;SDS011;16877;48.810;9.282;2023-07-31T11:18:06;4.80;;;2.50;;
1366;SDS011;16877;48.810;9.282;2023-07-31T11:20:37;4.03;;;2.50;;
1366;SDS011;16877;48.810;9.282;2023-07-31T11:23:06;4.50;;;2.63;;
1366;SDS011;16877;48.810;9.282;2023-07-31T11:25:34;4.10;;;2.50;;
1366;SDS011;16877;48.810;9.282;2023-07-31T11:28:17;4.27;;;2.23;;
1366;SDS011;16877;48.810;9.282;2023-07-31T11:30:47;4.30;;;2.47;;
1366;SDS011;16877;48.810;9.282;2023-07-31T11:33:14;6.50;;;3.40;;
1366;SDS011;16877;48.810;9.282;2023-07-31T11:35:43;6.03;;;3.10;;
1366;SDS011;16877;48.810;9.282;2023-07-31T11:38:20;3.83;;;2.43;;
1366;SDS011;16877;48.810;9.282;2023-07-31T11:40:50;5.30;;;2.97;;
1366;SDS011;16877;48.810;9.282;2023-07-31T11:43:18;4.47;;;2.90;;
1366;SDS011;16877;48.810;9.282;2023-07-31T11:45:48;6.20;;;2.90;;
1366;SDS011;16877;48.810;9.282;2023-07-31T11:48:33;4.30;;;2.83;;
1366;SDS011;16877;48.810;9.282;2023-07-31T11:51:02;4.63;;;2.80;;
1366;SDS011;16877;48.810;9.282;2023-07-31T11:53:31;5.07;;;3.00;;
1366;SDS011;16877;48.810;9.282;2023-07-31T11:56:05;8.03;;;3.37;;
1366;SDS011;16877;48.810;9.282;2023-07-31T11:58:36;6.57;;;2.60;;
1366;SDS011;16877;48.810;9.282;2023-07-31T12:01:22;6.60;;;3.03;;
1366;SDS011;16877;48.810;9.282;2023-07-31T12:04:05;4.90;;;2.77;;
1366;SDS011;16877;48.810;9.282;2023-07-31T12:06:33;3.87;;;2.70;;
1366;SDS011;16877;48.810;9.282;2023-07-31T12:09:01;4.20;;;2.80;;
1366;SDS011;16877;48.810;9.282;2023-07-31T12:11:30;4.63;;;2.80;;
1366;SDS011;16877;48.810;9.282;2023-07-31T12:13:59;4.17;;;2.23;;
1366;SDS011;16877;48.810;9.282;2023-07-31T12:16:42;5.60;;;2.83;;
1366;SDS011;16877;48.810;9.282;2023-07-31T12:19:10;6.10;;;2.90;;
1366;SDS011;16877;48.810;9.282;2023-07-31T12:21:38;5.70;;;2.60;;
1366;SDS011;16877;48.810;9.282;2023-07-31T12:24:05;3.70;;;2.40;;
1366;SDS011;16877;48.810;9.282;2023-07-31T12:26:33;4.70;;;2.97;;
1366;SDS011;16877;48.810;9.282;2023-07-31T12:29:01;5.63;;;3.70;;
1366;SDS011;16877;48.810;9.282;2023-07-31T12:31:28;5.40;;;2.70;;
1366;SDS011;16877;48.810;9.282;2023-07-31T12:33:58;7.57;;;3.40;;
1366;SDS011;16877;48.810;9.282;2023-07-31T12:36:28;4.00;;;2.67;;
1366;SDS011;16877;48.810;9.282;2023-07-31T12:39:00;3.87;;;2.70;;
1366;SDS011;16877;48.810;9.282;2023-07-31T12:41:30;5.00;;;2.90;;
1366;SDS011;16877;48.810;9.282;2023-07-31T12:43:57;5.10;;;2.70;;
1366;SDS011;16877;48.810;9.282;2023-07-31T12:46:25;5.27;;;2.97;;
1366;SDS011;16877;48.810;9.282;2023-07-31T12:48:54;3.77;;;2.23;;
1366;SDS011;16877;48.810;9.282;2023-07-31T12:51:24;3.90;;;2.43;;
1366;SDS011;16877;48.810;9.282;2023-07-31T12:54:02;3.23;;;2.10;;
1366;SDS011;16877;48.810;9.282;2023-07-31T12:56:31;5.10;;;2.80;;
1366;SDS011;16877;48.810;9.282;2023-07-31T12:58:59;4.00;;;2.50;;
1366;SDS011;16877;48.810;9.282;2023-07-31T13:01:26;4.60;;;2.33;;
1366;SDS011;16877;48.810;9.282;2023-07-31T13:03:54;5.03;;;3.03;;
1366;SDS011;16877;48.810;9.282;2023-07-31T13:06:22;5.10;;;3.07;;
1366;SDS011;16877;48.810;9.282;2023-07-31T13:09:06;6.30;;;3.00;;
1366;SDS011;16877;48.810;9.282;2023-07-31T13:11:36;5.83;;;2.97;;
1366;SDS011;16877;48.810;9.282;2023-07-31T13:14:03;5.80;;;3.00;;
1366;SDS011;16877;48.810;9.282;2023-07-31T13:16:31;5.37;;;2.70;;
1366;SDS011;16877;48.810;9.282;2023-07-31T13:19:00;5.43;;;3.20;;
1366;SDS011;16877;48.810;9.282;2023-07-31T13:21:30;4.50;;;2.83;;
1366;SDS011;16877;48.810;9.282;2023-07-31T13:23:58;4.47;;;2.57;;
1366;SDS011;16877;48.810;9.282;2023-07-31T13:26:26;4.87;;;3.37;;
1366;SDS011;16877;48.810;9.282;2023-07-31T13:28:53;4.50;;;3.00;;
1366;SDS011;16877;48.810;9.282;2023-07-31T13:31:22;5.20;;;3.40;;
1366;SDS011;16877;48.810;9.282;2023-07-31T13:33:50;5.47;;;3.30;;
1366;SDS011;16877;48.810;9.282;2023-07-31T13:36:30;4.10;;;2.27;;
1366;SDS011;16877;48.810;9.282;2023-07-31T13:38:59;9.83;;;3.33;;
1366;SDS011;16877;48.810;9.282;2023-07-31T13:41:26;4.60;;;3.20;;
1366;SDS011;16877;48.810;9.282;2023-07-31T13:43:55;4.03;;;2.80;;
1366;SDS011;16877;48.810;9.282;2023-07-31T13:46:23;3.97;;;2.80;;
1366;SDS011;16877;48.810;9.282;2023-07-31T13:48:50;7.23;;;3.77;;
1366;SDS011;16877;48.810;9.282;2023-07-31T13:51:19;5.67;;;3.43;;
1366;SDS011;16877;48.810;9.282;2023-07-31T13:53:50;5.50;;;3.57;;
1366;SDS011;16877;48.810;9.282;2023-07-31T13:56:18;6.77;;;3.73;;
1366;SDS011;16877;48.810;9.282;2023-07-31T13:58:45;6.27;;;3.33;;
1366;SDS011;16877;48.810;9.282;2023-07-31T14:01:12;5.87;;;3.30;;
1366;SDS011;16877;48.810;9.282;2023-07-31T14:03:39;5.30;;;3.47;;
1366;SDS011;16877;48.810;9.282;2023-07-31T14:06:08;6.17;;;3.00;;
1366;SDS011;16877;48.810;9.282;2023-07-31T14:08:36;4.20;;;2.70;;
1366;SDS011;16877;48.810;9.282;2023-07-31T14:11:06;4.10;;;2.83;;
1366;SDS011;16877;48.810;9.282;2023-07-31T14:13:34;5.10;;;2.70;;
1366;SDS011;16877;48.810;9.282;2023-07-31T14:16:02;6.73;;;3.47;;
1366;SDS011;16877;48.810;9.282;2023-07-31T14:18:30;7.37;;;3.07;;
1366;SDS011;16877;48.810;9.282;2023-07-31T14:21:07;5.40;;;3.40;;
1366;SDS011;16877;48.810;9.282;2023-07-31T14:23:40;4.70;;;3.13;;
1366;SDS011;16877;48.810;9.282;2023-07-31T14:26:11;4.43;;;2.80;;
1366;SDS011;16877;48.810;9.282;2023-07-31T14:28:38;4.27;;;2.87;;
1366;SDS011;16877;48.810;9.282;2023-07-31T14:31:06;6.23;;;3.20;;
1366;SDS011;16877;48.810;9.282;2023-07-31T14:33:36;5.70;;;2.90;;
1366;SDS011;16877;48.810;9.282;2023-07-31T14:36:05;4.37;;;2.93;;
1366;SDS011;16877;48.810;9.282;2023-07-31T14:38:33;5.07;;;2.97;;
1366;SDS011;16877;48.810;9.282;2023-07-31T14:41:01;5.53;;;2.60;;
1366;SDS011;16877;48.810;9.282;2023-07-31T14:43:30;4.50;;;2.70;;
1366;SDS011;16877;48.810;9.282;2023-07-31T14:46:14;4.20;;;2.50;;
1366;SDS011;16877;48.810;9.282;2023-07-31T14:48:57;4.70;;;3.00;;
1366;SDS011;16877;48.810;9.282;2023-07-31T14:51:24;3.90;;;2.77;;
1366;SDS011;16877;48.810;9.282;2023-07-31T14:53:53;4.47;;;3.33;;
1366;SDS011;16877;48.810;9.282;2023-07-31T14:56:21;5.00;;;2.90;;
1366;SDS011;16877;48.810;9.282;2023-07-31T14:58:53;4.30;;;3.20;;
1366;SDS011;16877;48.810;9.282;2023-07-31T15:01:21;4.03;;;2.70;;
1366;SDS011;16877;48.810;9.282;2023-07-31T15:03:50;7.00;;;3.23;;
1366;SDS011;16877;48.810;9.282;2023-07-31T15:06:18;4.10;;;3.10;;
1366;SDS011;16877;48.810;9.282;2023-07-31T15:08:45;4.77;;;2.97;;
1366;SDS011;16877;48.810;9.282;2023-07-31T15:11:15;4.43;;;2.83;;
1366;SDS011;16877;48.810;9.282;2023-07-31T15:13:43;4.73;;;3.30;;
1366;SDS011;16877;48.810;9.282;2023-07-31T15:16:15;5.77;;;2.80;;
1366;SDS011;16877;48.810;9.282;2023-07-31T15:18:42;3.60;;;2.50;;
1366;SDS011;16877;48.810;9.282;2023-07-31T15:21:09;4.70;;;3.10;;
1366;SDS011;16877;48.810;9.282;2023-07-31T15:23:39;4.63;;;3.23;;
1366;SDS011;16877;48.810;9.282;2023-07-31T15:26:21;5.10;;;3.07;;